sensor_id;sensor_type;location;lat;lon;timestamp;P1;durP1;ratioP1;P2;durP2;ratioP2
12535;SDS011;6334;48.696;2.114;2023-10-31T00:00:36;4.13;;;2.20;;
12535;SDS011;6334;48.696;2.114;2023-10-31T00:03:06;2.97;;;1.80;;
12535;SDS011;6334;48.696;2.114;2023-10-31T00:05:35;5.22;;;2.28;;
12535;SDS011;6334;48.696;2.114;2023-10-31T00:08:05;3.30;;;1.90;;
12535;SDS011;6334;48.696;2.114;2023-10-31T00:10:35;5.13;;;1.73;;
12535;SDS011;6334;48.696;2.114;2023-10-31T00:13:05;2.28;;;2.00;;
12535;SDS011;6334;48.696;2.114;2023-10-31T00:15:35;2.47;;;1.58;;
12535;SDS011;6334;48.696;2.114;2023-10-31T00:18:05;6.47;;;1.85;;
12535;SDS011;6334;48.696;2.114;2023-10-31T00:20:35;4.10;;;1.63;;
12535;SDS011;6334;48.696;2.114;2023-10-31T00:23:06;3.77;;;1.77;;
12535;SDS011;6334;48.696;2.114;2023-10-31T00:25:38;4.33;;;2.27;;
12535;SDS011;6334;48.696;2.114;2023-10-31T00:28:08;3.92;;;2.17;;
12535;SDS011;6334;48.696;2.114;2023-10-31T00:30:37;6.23;;;2.53;;
12535;SDS011;6334;48.696;2.114;2023-10-31T00:33:07;4.67;;;2.93;;
12535;SDS011;6334;48.696;2.114;2023-10-31T00:35:38;5.40;;;2.97;;
12535;SDS011;6334;48.696;2.114;2023-10-31T00:38:09;6.15;;;2.47;;
12535;SDS011;6334;48.696;2.114;2023-10-31T00:40:38;4.87;;;2.17;;
12535;SDS011;6334;48.696;2.114;2023-10-31T00:43:08;2.90;;;1.25;;
12535;SDS011;6334;48.696;2.114;2023-10-31T00:45:39;1.75;;;1.40;;
12535;SDS011;6334;48.696;2.114;2023-10-31T00:48:10;3.73;;;2.03;;
12535;SDS011;6334;48.696;2.114;2023-10-31T00:50:39;3.50;;;1.80;;
12535;SDS011;6334;48.696;2.114;2023-10-31T00:53:10;3.83;;;1.63;;
12535;SDS011;6334;48.696;2.114;2023-10-31T00:55:39;4.10;;;1.90;;
12535;SDS011;6334;48.696;2.114;2023-10-31T00:58:09;5.93;;;2.17;;
12535;SDS011;6334;48.696;2.114;2023-10-31T01:00:40;3.40;;;1.97;;
12535;SDS011;6334;48.696;2.114;2023-10-31T01:03:10;4.40;;;2.10;;
12535;SDS011;6334;48.696;2.114;2023-10-31T01:05:41;3.73;;;1.90;;
12535;SDS011;6334;48.696;2.114;2023-10-31T01:08:12;5.07;;;2.20;;
12535;SDS011;6334;48.696;2.114;2023-10-31T01:10:43;4.57;;;2.23;;
12535;SDS011;6334;48.696;2.114;2023-10-31T01:13:13;3.23;;;1.93;;
12535;SDS011;6334;48.696;2.114;2023-10-31T01:15:43;5.03;;;2.43;;
12535;SDS011;6334;48.696;2.114;2023-10-31T01:18:14;3.43;;;2.07;;
12535;SDS011;6334;48.696;2.114;2023-10-31T01:20:45;3.70;;;2.37;;
12535;SDS011;6334;48.696;2.114;2023-10-31T01:23:14;3.35;;;2.10;;
12535;SDS011;6334;48.696;2.114;2023-10-31T01:25:46;3.67;;;1.80;;
12535;SDS011;6334;48.696;2.114;2023-10-31T01:28:17;4.90;;;1.90;;
12535;SDS011;6334;48.696;2.114;2023-10-31T01:30:48;4.40;;;2.08;;
12535;SDS011;6334;48.696;2.114;2023-10-31T01:33:20;2.97;;;1.97;;
12535;SDS011;6334;48.696;2.114;2023-10-31T01:35:50;5.47;;;2.13;;
12535;SDS011;6334;48.696;2.114;2023-10-31T01:38:21;2.57;;;1.80;;
12535;SDS011;6334;48.696;2.114;2023-10-31T01:40:52;5.90;;;2.70;;
12535;SDS011;6334;48.696;2.114;2023-10-31T01:43:29;3.50;;;2.20;;
12535;SDS011;6334;48.696;2.114;2023-10-31T01:45:58;2.92;;;2.15;;
12535;SDS011;6334;48.696;2.114;2023-10-31T01:48:29;6.83;;;3.10;;
12535;SDS011;6334;48.696;2.114;2023-10-31T01:50:59;6.93;;;2.43;;
12535;SDS011;6334;48.696;2.114;2023-10-31T01:53:28;3.03;;;2.33;;
12535;SDS011;6334;48.696;2.114;2023-10-31T01:55:59;3.43;;;2.67;;
12535;SDS011;6334;48.696;2.114;2023-10-31T01:58:37;6.14;;;2.92;;
12535;SDS011;6334;48.696;2.114;2023-10-31T02:01:06;3.87;;;2.60;;
12535;SDS011;6334;48.696;2.114;2023-10-31T02:03:36;6.83;;;2.77;;
12535;SDS011;6334;48.696;2.114;2023-10-31T02:06:06;3.83;;;2.70;;
12535;SDS011;6334;48.696;2.114;2023-10-31T02:08:35;6.57;;;3.00;;
12535;SDS011;6334;48.696;2.114;2023-10-31T02:11:05;4.00;;;3.15;;
12535;SDS011;6334;48.696;2.114;2023-10-31T02:13:36;3.13;;;2.70;;
12535;SDS011;6334;48.696;2.114;2023-10-31T02:16:07;6.00;;;2.93;;
12535;SDS011;6334;48.696;2.114;2023-10-31T02:18:38;6.67;;;2.77;;
12535;SDS011;6334;48.696;2.114;2023-10-31T02:21:08;4.73;;;2.77;;
12535;SDS011;6334;48.696;2.114;2023-10-31T02:23:38;8.83;;;3.10;;
12535;SDS011;6334;48.696;2.114;2023-10-31T02:26:09;5.83;;;2.77;;
12535;SDS011;6334;48.696;2.114;2023-10-31T02:31:13;5.27;;;3.07;;
12535;SDS011;6334;48.696;2.114;2023-10-31T02:33:44;5.87;;;3.22;;
12535;SDS011;6334;48.696;2.114;2023-10-31T02:36:14;4.37;;;2.80;;
12535;SDS011;6334;48.696;2.114;2023-10-31T02:38:46;9.68;;;3.00;;
12535;SDS011;6334;48.696;2.114;2023-10-31T02:41:16;9.10;;;3.50;;
12535;SDS011;6334;48.696;2.114;2023-10-31T02:43:48;6.43;;;3.30;;
12535;SDS011;6334;48.696;2.114;2023-10-31T02:46:18;4.95;;;2.47;;
12535;SDS011;6334;48.696;2.114;2023-10-31T02:48:47;7.12;;;2.98;;
12535;SDS011;6334;48.696;2.114;2023-10-31T02:51:18;11.13;;;3.60;;
12535;SDS011;6334;48.696;2.114;2023-10-31T02:53:49;10.05;;;3.53;;
12535;SDS011;6334;48.696;2.114;2023-10-31T02:56:19;6.53;;;3.13;;
12535;SDS011;6334;48.696;2.114;2023-10-31T03:01:27;5.53;;;3.00;;
12535;SDS011;6334;48.696;2.114;2023-10-31T03:03:56;7.27;;;3.73;;
12535;SDS011;6334;48.696;2.114;2023-10-31T03:06:27;5.83;;;3.50;;
12535;SDS011;6334;48.696;2.114;2023-10-31T03:08:57;5.70;;;3.37;;
12535;SDS011;6334;48.696;2.114;2023-10-31T03:11:29;4.33;;;3.33;;
12535;SDS011;6334;48.696;2.114;2023-10-31T03:13:59;7.82;;;3.20;;
12535;SDS011;6334;48.696;2.114;2023-10-31T03:16:28;3.80;;;3.00;;
12535;SDS011;6334;48.696;2.114;2023-10-31T03:18:59;4.33;;;3.23;;
12535;SDS011;6334;48.696;2.114;2023-10-31T03:21:31;3.97;;;3.10;;
12535;SDS011;6334;48.696;2.114;2023-10-31T03:24:01;5.00;;;3.25;;
12535;SDS011;6334;48.696;2.114;2023-10-31T03:26:32;6.10;;;3.03;;
12535;SDS011;6334;48.696;2.114;2023-10-31T03:29:02;3.93;;;2.90;;
12535;SDS011;6334;48.696;2.114;2023-10-31T03:31:32;5.50;;;2.93;;
12535;SDS011;6334;48.696;2.114;2023-10-31T03:34:03;5.50;;;3.17;;
12535;SDS011;6334;48.696;2.114;2023-10-31T03:36:33;4.03;;;3.00;;
12535;SDS011;6334;48.696;2.114;2023-10-31T03:41:37;5.40;;;3.10;;
12535;SDS011;6334;48.696;2.114;2023-10-31T03:44:07;6.57;;;3.37;;
12535;SDS011;6334;48.696;2.114;2023-10-31T03:46:36;4.17;;;3.27;;
12535;SDS011;6334;48.696;2.114;2023-10-31T03:49:07;6.63;;;3.57;;
12535;SDS011;6334;48.696;2.114;2023-10-31T03:51:38;4.95;;;3.17;;
12535;SDS011;6334;48.696;2.114;2023-10-31T03:54:10;7.67;;;3.60;;
12535;SDS011;6334;48.696;2.114;2023-10-31T03:56:41;8.17;;;3.83;;
12535;SDS011;6334;48.696;2.114;2023-10-31T03:59:12;6.37;;;3.70;;
12535;SDS011;6334;48.696;2.114;2023-10-31T04:01:41;9.59;;;3.72;;
12535;SDS011;6334;48.696;2.114;2023-10-31T04:04:12;4.47;;;3.03;;
12535;SDS011;6334;48.696;2.114;2023-10-31T04:06:43;5.87;;;3.43;;
12535;SDS011;6334;48.696;2.114;2023-10-31T04:09:14;5.33;;;3.40;;
12535;SDS011;6334;48.696;2.114;2023-10-31T04:11:43;5.00;;;3.65;;
12535;SDS011;6334;48.696;2.114;2023-10-31T04:14:13;5.15;;;3.78;;
12535;SDS011;6334;48.696;2.114;2023-10-31T04:16:43;2.70;;;2.42;;
12535;SDS011;6334;48.696;2.114;2023-10-31T04:19:16;6.90;;;3.23;;
12535;SDS011;6334;48.696;2.114;2023-10-31T04:21:46;4.53;;;2.83;;
12535;SDS011;6334;48.696;2.114;2023-10-31T04:24:16;4.30;;;3.12;;
12535;SDS011;6334;48.696;2.114;2023-10-31T04:26:46;6.77;;;3.30;;
12535;SDS011;6334;48.696;2.114;2023-10-31T04:29:17;5.72;;;3.08;;
12535;SDS011;6334;48.696;2.114;2023-10-31T04:31:47;5.07;;;3.43;;
12535;SDS011;6334;48.696;2.114;2023-10-31T04:34:19;6.22;;;3.00;;
12535;SDS011;6334;48.696;2.114;2023-10-31T04:36:49;6.30;;;3.22;;
12535;SDS011;6334;48.696;2.114;2023-10-31T04:39:19;5.10;;;3.50;;
12535;SDS011;6334;48.696;2.114;2023-10-31T04:41:50;5.70;;;3.27;;
12535;SDS011;6334;48.696;2.114;2023-10-31T04:44:22;7.20;;;3.67;;
12535;SDS011;6334;48.696;2.114;2023-10-31T04:46:54;5.40;;;3.50;;
12535;SDS011;6334;48.696;2.114;2023-10-31T04:49:23;5.77;;;3.40;;
12535;SDS011;6334;48.696;2.114;2023-10-31T04:51:54;3.80;;;3.10;;
12535;SDS011;6334;48.696;2.114;2023-10-31T04:54:24;6.03;;;3.33;;
12535;SDS011;6334;48.696;2.114;2023-10-31T04:56:54;7.00;;;3.30;;
12535;SDS011;6334;48.696;2.114;2023-10-31T04:59:23;4.67;;;3.40;;
12535;SDS011;6334;48.696;2.114;2023-10-31T05:01:53;4.03;;;2.90;;
12535;SDS011;6334;48.696;2.114;2023-10-31T05:04:23;6.60;;;3.80;;
12535;SDS011;6334;48.696;2.114;2023-10-31T05:06:53;5.87;;;3.23;;
12535;SDS011;6334;48.696;2.114;2023-10-31T05:09:22;6.50;;;3.47;;
12535;SDS011;6334;48.696;2.114;2023-10-31T05:11:53;7.17;;;3.07;;
12535;SDS011;6334;48.696;2.114;2023-10-31T05:14:22;7.47;;;2.70;;
12535;SDS011;6334;48.696;2.114;2023-10-31T05:16:52;7.30;;;2.63;;
12535;SDS011;6334;48.696;2.114;2023-10-31T05:19:22;4.40;;;2.83;;
12535;SDS011;6334;48.696;2.114;2023-10-31T05:21:51;4.68;;;2.70;;
12535;SDS011;6334;48.696;2.114;2023-10-31T05:24:22;3.43;;;2.20;;
12535;SDS011;6334;48.696;2.114;2023-10-31T05:26:53;4.60;;;3.00;;
12535;SDS011;6334;48.696;2.114;2023-10-31T05:29:23;4.80;;;2.80;;
12535;SDS011;6334;48.696;2.114;2023-10-31T05:31:55;6.23;;;2.63;;
12535;SDS011;6334;48.696;2.114;2023-10-31T05:34:25;5.10;;;2.33;;
12535;SDS011;6334;48.696;2.114;2023-10-31T05:36:54;6.00;;;2.57;;
12535;SDS011;6334;48.696;2.114;2023-10-31T05:39:25;5.10;;;2.30;;
12535;SDS011;6334;48.696;2.114;2023-10-31T05:41:56;5.93;;;2.20;;
12535;SDS011;6334;48.696;2.114;2023-10-31T05:44:27;8.30;;;2.47;;
12535;SDS011;6334;48.696;2.114;2023-10-31T05:46:59;3.63;;;2.33;;
12535;SDS011;6334;48.696;2.114;2023-10-31T05:49:28;6.23;;;2.43;;
12535;SDS011;6334;48.696;2.114;2023-10-31T05:51:58;5.03;;;2.05;;
12535;SDS011;6334;48.696;2.114;2023-10-31T05:54:28;5.17;;;2.23;;
12535;SDS011;6334;48.696;2.114;2023-10-31T05:57:00;5.67;;;2.63;;
12535;SDS011;6334;48.696;2.114;2023-10-31T05:59:29;4.30;;;1.80;;
12535;SDS011;6334;48.696;2.114;2023-10-31T06:01:59;2.43;;;2.20;;
12535;SDS011;6334;48.696;2.114;2023-10-31T06:04:30;4.20;;;1.83;;
12535;SDS011;6334;48.696;2.114;2023-10-31T06:06:59;4.25;;;1.90;;
12535;SDS011;6334;48.696;2.114;2023-10-31T06:09:29;3.50;;;1.70;;
12535;SDS011;6334;48.696;2.114;2023-10-31T06:11:59;6.80;;;2.87;;
12535;SDS011;6334;48.696;2.114;2023-10-31T06:14:30;5.10;;;1.70;;
12535;SDS011;6334;48.696;2.114;2023-10-31T06:17:01;3.33;;;1.80;;
12535;SDS011;6334;48.696;2.114;2023-10-31T06:19:33;4.43;;;2.00;;
12535;SDS011;6334;48.696;2.114;2023-10-31T06:22:04;5.03;;;2.30;;
12535;SDS011;6334;48.696;2.114;2023-10-31T06:24:34;6.83;;;2.60;;
12535;SDS011;6334;48.696;2.114;2023-10-31T06:27:05;4.07;;;2.23;;
12535;SDS011;6334;48.696;2.114;2023-10-31T06:29:35;4.77;;;2.10;;
12535;SDS011;6334;48.696;2.114;2023-10-31T06:32:05;5.13;;;2.30;;
12535;SDS011;6334;48.696;2.114;2023-10-31T06:34:34;4.87;;;2.35;;
12535;SDS011;6334;48.696;2.114;2023-10-31T06:37:04;2.97;;;1.80;;
12535;SDS011;6334;48.696;2.114;2023-10-31T06:39:36;7.70;;;2.28;;
12535;SDS011;6334;48.696;2.114;2023-10-31T06:42:07;5.37;;;2.05;;
12535;SDS011;6334;48.696;2.114;2023-10-31T06:44:39;5.53;;;2.17;;
12535;SDS011;6334;48.696;2.114;2023-10-31T06:47:09;5.77;;;2.50;;
12535;SDS011;6334;48.696;2.114;2023-10-31T06:49:40;4.67;;;2.80;;
12535;SDS011;6334;48.696;2.114;2023-10-31T06:52:12;8.02;;;3.37;;
12535;SDS011;6334;48.696;2.114;2023-10-31T06:54:45;7.67;;;3.20;;
12535;SDS011;6334;48.696;2.114;2023-10-31T06:57:18;4.95;;;2.73;;
12535;SDS011;6334;48.696;2.114;2023-10-31T06:59:48;3.80;;;2.57;;
12535;SDS011;6334;48.696;2.114;2023-10-31T07:02:19;4.40;;;2.60;;
12535;SDS011;6334;48.696;2.114;2023-10-31T07:04:51;10.35;;;3.53;;
12535;SDS011;6334;48.696;2.114;2023-10-31T07:07:21;5.08;;;2.12;;
12535;SDS011;6334;48.696;2.114;2023-10-31T07:09:51;7.33;;;3.00;;
12535;SDS011;6334;48.696;2.114;2023-10-31T07:12:22;6.57;;;3.23;;
12535;SDS011;6334;48.696;2.114;2023-10-31T07:14:53;7.80;;;3.07;;
12535;SDS011;6334;48.696;2.114;2023-10-31T07:17:23;5.87;;;3.20;;
12535;SDS011;6334;48.696;2.114;2023-10-31T07:19:53;8.30;;;3.27;;
12535;SDS011;6334;48.696;2.114;2023-10-31T07:22:23;5.93;;;2.73;;
12535;SDS011;6334;48.696;2.114;2023-10-31T07:24:53;4.82;;;2.90;;
12535;SDS011;6334;48.696;2.114;2023-10-31T07:27:25;6.60;;;2.60;;
12535;SDS011;6334;48.696;2.114;2023-10-31T07:29:54;6.60;;;2.20;;
12535;SDS011;6334;48.696;2.114;2023-10-31T07:32:25;5.40;;;2.42;;
12535;SDS011;6334;48.696;2.114;2023-10-31T07:34:56;6.77;;;2.40;;
12535;SDS011;6334;48.696;2.114;2023-10-31T07:37:26;7.53;;;2.80;;
12535;SDS011;6334;48.696;2.114;2023-10-31T07:40:10;3.03;;;2.17;;
12535;SDS011;6334;48.696;2.114;2023-10-31T07:42:41;3.73;;;2.27;;
12535;SDS011;6334;48.696;2.114;2023-10-31T07:45:12;2.80;;;1.92;;
12535;SDS011;6334;48.696;2.114;2023-10-31T07:47:43;3.27;;;2.10;;
12535;SDS011;6334;48.696;2.114;2023-10-31T07:50:13;3.60;;;2.13;;
12535;SDS011;6334;48.696;2.114;2023-10-31T07:52:42;3.40;;;1.90;;
12535;SDS011;6334;48.696;2.114;2023-10-31T07:55:13;5.43;;;2.58;;
12535;SDS011;6334;48.696;2.114;2023-10-31T07:57:44;2.97;;;1.90;;
12535;SDS011;6334;48.696;2.114;2023-10-31T08:00:15;4.30;;;2.23;;
12535;SDS011;6334;48.696;2.114;2023-10-31T08:02:45;4.67;;;2.13;;
12535;SDS011;6334;48.696;2.114;2023-10-31T08:05:16;3.63;;;1.73;;
12535;SDS011;6334;48.696;2.114;2023-10-31T08:07:46;6.17;;;2.43;;
12535;SDS011;6334;48.696;2.114;2023-10-31T08:10:17;8.77;;;2.40;;
12535;SDS011;6334;48.696;2.114;2023-10-31T08:12:48;1.73;;;1.60;;
12535;SDS011;6334;48.696;2.114;2023-10-31T08:15:19;6.73;;;2.37;;
12535;SDS011;6334;48.696;2.114;2023-10-31T08:17:50;5.67;;;2.40;;
12535;SDS011;6334;48.696;2.114;2023-10-31T08:20:20;3.13;;;1.90;;
12535;SDS011;6334;48.696;2.114;2023-10-31T08:22:51;5.23;;;2.37;;
12535;SDS011;6334;48.696;2.114;2023-10-31T08:25:21;5.18;;;2.30;;
12535;SDS011;6334;48.696;2.114;2023-10-31T08:27:50;4.53;;;2.83;;
12535;SDS011;6334;48.696;2.114;2023-10-31T08:30:20;5.13;;;2.50;;
12535;SDS011;6334;48.696;2.114;2023-10-31T08:32:50;4.30;;;2.53;;
12535;SDS011;6334;48.696;2.114;2023-10-31T08:35:21;5.13;;;2.57;;
12535;SDS011;6334;48.696;2.114;2023-10-31T08:37:51;4.80;;;2.40;;
12535;SDS011;6334;48.696;2.114;2023-10-31T08:40:21;6.20;;;2.07;;
12535;SDS011;6334;48.696;2.114;2023-10-31T08:42:51;3.90;;;1.93;;
12535;SDS011;6334;48.696;2.114;2023-10-31T08:45:22;6.10;;;2.43;;
12535;SDS011;6334;48.696;2.114;2023-10-31T08:47:52;4.37;;;2.57;;
12535;SDS011;6334;48.696;2.114;2023-10-31T08:50:22;3.47;;;2.50;;
12535;SDS011;6334;48.696;2.114;2023-10-31T08:52:52;5.00;;;2.20;;
12535;SDS011;6334;48.696;2.114;2023-10-31T08:55:26;6.07;;;2.63;;
12535;SDS011;6334;48.696;2.114;2023-10-31T08:57:56;5.90;;;2.77;;
12535;SDS011;6334;48.696;2.114;2023-10-31T09:00:26;6.80;;;2.00;;
12535;SDS011;6334;48.696;2.114;2023-10-31T09:02:56;2.93;;;2.00;;
12535;SDS011;6334;48.696;2.114;2023-10-31T09:05:27;4.37;;;2.43;;
12535;SDS011;6334;48.696;2.114;2023-10-31T09:07:57;4.27;;;2.57;;
12535;SDS011;6334;48.696;2.114;2023-10-31T09:10:27;5.37;;;2.37;;
12535;SDS011;6334;48.696;2.114;2023-10-31T09:12:58;5.13;;;2.03;;
12535;SDS011;6334;48.696;2.114;2023-10-31T09:15:28;9.73;;;2.60;;
12535;SDS011;6334;48.696;2.114;2023-10-31T09:17:59;3.17;;;2.47;;
12535;SDS011;6334;48.696;2.114;2023-10-31T09:20:29;6.47;;;2.37;;
12535;SDS011;6334;48.696;2.114;2023-10-31T09:23:00;5.20;;;2.37;;
12535;SDS011;6334;48.696;2.114;2023-10-31T09:25:30;5.17;;;2.20;;
12535;SDS011;6334;48.696;2.114;2023-10-31T09:28:01;5.07;;;2.53;;
12535;SDS011;6334;48.696;2.114;2023-10-31T09:30:31;5.47;;;2.53;;
12535;SDS011;6334;48.696;2.114;2023-10-31T09:33:02;8.10;;;2.90;;
12535;SDS011;6334;48.696;2.114;2023-10-31T09:35:32;6.93;;;2.40;;
12535;SDS011;6334;48.696;2.114;2023-10-31T09:38:02;3.67;;;2.17;;
12535;SDS011;6334;48.696;2.114;2023-10-31T09:40:36;5.50;;;2.77;;
12535;SDS011;6334;48.696;2.114;2023-10-31T09:43:05;8.07;;;2.40;;
12535;SDS011;6334;48.696;2.114;2023-10-31T09:45:35;4.27;;;2.10;;
12535;SDS011;6334;48.696;2.114;2023-10-31T09:48:06;9.73;;;2.90;;
12535;SDS011;6334;48.696;2.114;2023-10-31T09:50:36;7.67;;;3.00;;
12535;SDS011;6334;48.696;2.114;2023-10-31T09:53:07;8.37;;;2.93;;
12535;SDS011;6334;48.696;2.114;2023-10-31T09:55:37;4.20;;;2.33;;
12535;SDS011;6334;48.696;2.114;2023-10-31T09:58:07;10.87;;;3.30;;
12535;SDS011;6334;48.696;2.114;2023-10-31T10:00:38;3.70;;;2.60;;
12535;SDS011;6334;48.696;2.114;2023-10-31T10:03:08;8.40;;;2.67;;
12535;SDS011;6334;48.696;2.114;2023-10-31T10:05:39;5.30;;;2.47;;
12535;SDS011;6334;48.696;2.114;2023-10-31T10:08:09;3.70;;;2.23;;
12535;SDS011;6334;48.696;2.114;2023-10-31T10:10:40;5.33;;;2.80;;
12535;SDS011;6334;48.696;2.114;2023-10-31T10:13:10;3.60;;;2.23;;
12535;SDS011;6334;48.696;2.114;2023-10-31T10:15:44;4.67;;;2.63;;
12535;SDS011;6334;48.696;2.114;2023-10-31T10:18:29;3.97;;;2.00;;
12535;SDS011;6334;48.696;2.114;2023-10-31T10:21:00;6.00;;;2.33;;
12535;SDS011;6334;48.696;2.114;2023-10-31T10:23:30;4.20;;;2.03;;
12535;SDS011;6334;48.696;2.114;2023-10-31T10:26:01;4.23;;;2.30;;
12535;SDS011;6334;48.696;2.114;2023-10-31T10:28:31;5.00;;;1.90;;
12535;SDS011;6334;48.696;2.114;2023-10-31T10:31:02;4.20;;;1.90;;
12535;SDS011;6334;48.696;2.114;2023-10-31T10:33:33;4.83;;;1.90;;
12535;SDS011;6334;48.696;2.114;2023-10-31T10:36:02;5.93;;;2.07;;
12535;SDS011;6334;48.696;2.114;2023-10-31T10:38:34;7.13;;;2.67;;
12535;SDS011;6334;48.696;2.114;2023-10-31T10:41:04;4.77;;;1.83;;
12535;SDS011;6334;48.696;2.114;2023-10-31T10:43:37;2.73;;;1.60;;
12535;SDS011;6334;48.696;2.114;2023-10-31T10:46:05;3.70;;;1.80;;
12535;SDS011;6334;48.696;2.114;2023-10-31T10:48:35;4.30;;;1.90;;
12535;SDS011;6334;48.696;2.114;2023-10-31T10:51:13;3.27;;;1.90;;
12535;SDS011;6334;48.696;2.114;2023-10-31T10:53:44;3.40;;;2.23;;
12535;SDS011;6334;48.696;2.114;2023-10-31T10:56:25;7.23;;;2.17;;
12535;SDS011;6334;48.696;2.114;2023-10-31T10:59:03;4.33;;;1.87;;
12535;SDS011;6334;48.696;2.114;2023-10-31T11:01:32;2.77;;;2.00;;
12535;SDS011;6334;48.696;2.114;2023-10-31T11:04:02;4.40;;;2.20;;
12535;SDS011;6334;48.696;2.114;2023-10-31T11:06:33;3.90;;;1.73;;
12535;SDS011;6334;48.696;2.114;2023-10-31T11:09:03;7.30;;;2.00;;
12535;SDS011;6334;48.696;2.114;2023-10-31T11:11:34;5.87;;;2.00;;
12535;SDS011;6334;48.696;2.114;2023-10-31T11:14:04;2.70;;;1.53;;
12535;SDS011;6334;48.696;2.114;2023-10-31T11:17:11;5.43;;;1.63;;
12535;SDS011;6334;48.696;2.114;2023-10-31T11:19:22;2.40;;;1.60;;
12535;SDS011;6334;48.696;2.114;2023-10-31T11:21:59;1.93;;;1.67;;
12535;SDS011;6334;48.696;2.114;2023-10-31T11:24:31;2.60;;;1.40;;
12535;SDS011;6334;48.696;2.114;2023-10-31T11:27:02;4.10;;;2.10;;
12535;SDS011;6334;48.696;2.114;2023-10-31T11:29:32;5.40;;;1.67;;
12535;SDS011;6334;48.696;2.114;2023-10-31T11:32:02;2.37;;;1.53;;
12535;SDS011;6334;48.696;2.114;2023-10-31T11:34:32;3.73;;;1.87;;
12535;SDS011;6334;48.696;2.114;2023-10-31T11:37:18;3.97;;;1.80;;
12535;SDS011;6334;48.696;2.114;2023-10-31T11:42:56;3.43;;;1.70;;
12535;SDS011;6334;48.696;2.114;2023-10-31T11:47:59;2.53;;;1.80;;
12535;SDS011;6334;48.696;2.114;2023-10-31T11:50:30;3.03;;;1.73;;
12535;SDS011;6334;48.696;2.114;2023-10-31T11:53:02;4.40;;;2.07;;
12535;SDS011;6334;48.696;2.114;2023-10-31T11:55:35;4.30;;;1.87;;
12535;SDS011;6334;48.696;2.114;2023-10-31T11:58:20;5.47;;;1.90;;
12535;SDS011;6334;48.696;2.114;2023-10-31T12:00:50;3.27;;;1.37;;
12535;SDS011;6334;48.696;2.114;2023-10-31T12:03:20;4.80;;;1.60;;
12535;SDS011;6334;48.696;2.114;2023-10-31T12:05:53;2.17;;;1.67;;
12535;SDS011;6334;48.696;2.114;2023-10-31T12:08:42;5.97;;;2.07;;
12535;SDS011;6334;48.696;2.114;2023-10-31T12:11:16;3.00;;;1.70;;
12535;SDS011;6334;48.696;2.114;2023-10-31T12:13:52;5.43;;;2.27;;
12535;SDS011;6334;48.696;2.114;2023-10-31T12:16:25;5.83;;;1.73;;
12535;SDS011;6334;48.696;2.114;2023-10-31T12:18:59;4.57;;;1.60;;
12535;SDS011;6334;48.696;2.114;2023-10-31T12:21:49;3.90;;;2.20;;
12535;SDS011;6334;48.696;2.114;2023-10-31T12:24:15;4.73;;;1.93;;
12535;SDS011;6334;48.696;2.114;2023-10-31T12:26:45;4.87;;;2.27;;
12535;SDS011;6334;48.696;2.114;2023-10-31T12:29:16;5.97;;;2.10;;
12535;SDS011;6334;48.696;2.114;2023-10-31T12:31:50;9.20;;;2.13;;
12535;SDS011;6334;48.696;2.114;2023-10-31T12:34:23;3.07;;;1.57;;
12535;SDS011;6334;48.696;2.114;2023-10-31T12:36:53;5.67;;;1.97;;
12535;SDS011;6334;48.696;2.114;2023-10-31T12:39:26;5.17;;;2.40;;
12535;SDS011;6334;48.696;2.114;2023-10-31T12:41:56;3.23;;;1.87;;
12535;SDS011;6334;48.696;2.114;2023-10-31T12:44:27;5.67;;;1.63;;
12535;SDS011;6334;48.696;2.114;2023-10-31T12:46:57;3.27;;;1.37;;
12535;SDS011;6334;48.696;2.114;2023-10-31T12:49:28;5.07;;;1.93;;
12535;SDS011;6334;48.696;2.114;2023-10-31T12:51:59;5.53;;;2.37;;
12535;SDS011;6334;48.696;2.114;2023-10-31T12:57:02;3.93;;;1.70;;
12535;SDS011;6334;48.696;2.114;2023-10-31T12:59:30;4.03;;;2.20;;
12535;SDS011;6334;48.696;2.114;2023-10-31T13:02:00;6.00;;;2.10;;
12535;SDS011;6334;48.696;2.114;2023-10-31T13:04:31;6.13;;;2.03;;
12535;SDS011;6334;48.696;2.114;2023-10-31T13:07:04;6.53;;;1.97;;
12535;SDS011;6334;48.696;2.114;2023-10-31T13:09:38;5.50;;;2.00;;
12535;SDS011;6334;48.696;2.114;2023-10-31T13:12:08;5.63;;;2.50;;
12535;SDS011;6334;48.696;2.114;2023-10-31T13:14:38;4.30;;;1.60;;
12535;SDS011;6334;48.696;2.114;2023-10-31T13:17:08;5.20;;;2.60;;
12535;SDS011;6334;48.696;2.114;2023-10-31T13:19:42;5.80;;;2.20;;
12535;SDS011;6334;48.696;2.114;2023-10-31T13:22:12;4.57;;;2.30;;
12535;SDS011;6334;48.696;2.114;2023-10-31T13:24:42;2.60;;;1.60;;
12535;SDS011;6334;48.696;2.114;2023-10-31T13:27:12;5.83;;;2.37;;
12535;SDS011;6334;48.696;2.114;2023-10-31T13:29:43;5.30;;;2.20;;
12535;SDS011;6334;48.696;2.114;2023-10-31T13:32:13;5.10;;;2.83;;
12535;SDS011;6334;48.696;2.114;2023-10-31T13:34:44;7.17;;;2.87;;
12535;SDS011;6334;48.696;2.114;2023-10-31T13:37:14;6.93;;;2.83;;
12535;SDS011;6334;48.696;2.114;2023-10-31T13:39:44;6.70;;;2.70;;
12535;SDS011;6334;48.696;2.114;2023-10-31T13:42:15;8.37;;;2.67;;
12535;SDS011;6334;48.696;2.114;2023-10-31T13:44:45;6.43;;;2.40;;
12535;SDS011;6334;48.696;2.114;2023-10-31T13:47:15;4.50;;;2.33;;
12535;SDS011;6334;48.696;2.114;2023-10-31T13:49:45;4.73;;;2.23;;
12535;SDS011;6334;48.696;2.114;2023-10-31T13:52:16;7.37;;;2.37;;
12535;SDS011;6334;48.696;2.114;2023-10-31T13:54:46;7.63;;;2.30;;
12535;SDS011;6334;48.696;2.114;2023-10-31T13:57:18;6.03;;;2.70;;
12535;SDS011;6334;48.696;2.114;2023-10-31T13:59:49;5.60;;;2.30;;
12535;SDS011;6334;48.696;2.114;2023-10-31T14:02:19;7.47;;;2.63;;
12535;SDS011;6334;48.696;2.114;2023-10-31T14:04:49;7.47;;;3.07;;
12535;SDS011;6334;48.696;2.114;2023-10-31T14:07:22;6.63;;;2.37;;
12535;SDS011;6334;48.696;2.114;2023-10-31T14:09:51;6.67;;;2.60;;
12535;SDS011;6334;48.696;2.114;2023-10-31T14:12:21;7.03;;;2.57;;
12535;SDS011;6334;48.696;2.114;2023-10-31T14:14:51;9.07;;;2.80;;
12535;SDS011;6334;48.696;2.114;2023-10-31T14:17:22;6.80;;;1.80;;
12535;SDS011;6334;48.696;2.114;2023-10-31T14:19:52;6.23;;;2.47;;
12535;SDS011;6334;48.696;2.114;2023-10-31T14:22:23;4.73;;;2.23;;
12535;SDS011;6334;48.696;2.114;2023-10-31T14:24:53;5.10;;;2.37;;
12535;SDS011;6334;48.696;2.114;2023-10-31T14:27:23;4.87;;;1.90;;
12535;SDS011;6334;48.696;2.114;2023-10-31T14:29:59;6.07;;;1.83;;
12535;SDS011;6334;48.696;2.114;2023-10-31T14:32:29;5.90;;;2.30;;
12535;SDS011;6334;48.696;2.114;2023-10-31T14:34:59;7.07;;;2.63;;
12535;SDS011;6334;48.696;2.114;2023-10-31T14:37:29;6.80;;;2.20;;
12535;SDS011;6334;48.696;2.114;2023-10-31T14:40:01;6.13;;;1.77;;
12535;SDS011;6334;48.696;2.114;2023-10-31T14:42:32;3.57;;;2.17;;
12535;SDS011;6334;48.696;2.114;2023-10-31T14:45:03;9.00;;;2.33;;
12535;SDS011;6334;48.696;2.114;2023-10-31T14:47:34;6.47;;;2.30;;
12535;SDS011;6334;48.696;2.114;2023-10-31T14:50:05;8.60;;;2.47;;
12535;SDS011;6334;48.696;2.114;2023-10-31T14:52:36;5.73;;;2.23;;
12535;SDS011;6334;48.696;2.114;2023-10-31T14:55:06;5.97;;;1.97;;
12535;SDS011;6334;48.696;2.114;2023-10-31T14:57:37;6.37;;;2.23;;
12535;SDS011;6334;48.696;2.114;2023-10-31T15:00:07;7.80;;;2.70;;
12535;SDS011;6334;48.696;2.114;2023-10-31T15:02:38;8.83;;;2.50;;
12535;SDS011;6334;48.696;2.114;2023-10-31T15:05:08;5.27;;;2.00;;
12535;SDS011;6334;48.696;2.114;2023-10-31T15:07:39;5.70;;;2.63;;
12535;SDS011;6334;48.696;2.114;2023-10-31T15:10:09;7.63;;;2.17;;
12535;SDS011;6334;48.696;2.114;2023-10-31T15:12:40;5.67;;;2.23;;
12535;SDS011;6334;48.696;2.114;2023-10-31T15:15:11;3.87;;;2.03;;
12535;SDS011;6334;48.696;2.114;2023-10-31T15:17:42;6.67;;;2.93;;
12535;SDS011;6334;48.696;2.114;2023-10-31T15:20:12;6.67;;;1.80;;
12535;SDS011;6334;48.696;2.114;2023-10-31T15:22:42;7.57;;;2.53;;
12535;SDS011;6334;48.696;2.114;2023-10-31T15:25:12;7.33;;;1.90;;
12535;SDS011;6334;48.696;2.114;2023-10-31T15:27:42;7.67;;;3.03;;
12535;SDS011;6334;48.696;2.114;2023-10-31T15:30:13;9.43;;;2.67;;
12535;SDS011;6334;48.696;2.114;2023-10-31T15:32:43;3.60;;;2.43;;
12535;SDS011;6334;48.696;2.114;2023-10-31T15:35:14;6.10;;;1.90;;
12535;SDS011;6334;48.696;2.114;2023-10-31T15:37:44;6.37;;;2.37;;